»·PEaware :: N43XS CYAZ-KPDX

N43XS :: CYAZ-KPDX

FLIGHT INFORMATION

Flight Status: Arrived
Operator: Privately registered:
United States
More flights under this callsign
Pilot: Maurice C. (12314)
Aircraft: BEECH AIRCRAFT A90-E90 KING AIR
(BE9L)
More flights by this aircraft type
Origin: CYAZ Tofino
Canada
Destination: KPDX Portland Intl
United States
More flights between these airports :: More routes between these airports
Route: +DRCT
File this flight plan on PilotEdge
Remarks:
Altitude:
(Current/Filed)
12,500ft
Speed:
(Current/Filed)
180kts
Departed: 26-Aug-17 08:04 AM
Arrived: 26-Aug-17 09:27 AM
Distance/Time
Traveled:
247nm/1:23
Distance/Time
To Go:
Arrived

Flight Plot

Page will automatically refresh every two minutes.

Flight plan parsing failed; only flown route is shown


Map Options




Map Legend


Flown Route
Filed Route
Departure Airport
Arrival Airport
Navaid (VOR, NDB)
Fix

Horizontal Profiles

Position Reports

Time Latitude Longitude Heading Altitude Ground
Speed
26-Aug-17 07:52 49.078507 -125.768181 214 85ft 0kts
26-Aug-17 07:53 49.078507 -125.768181 214 85ft 0kts
26-Aug-17 07:54 49.078507 -125.768181 214 85ft 0kts
26-Aug-17 07:55 49.078507 -125.768181 214 85ft 0kts
26-Aug-17 07:56 49.078507 -125.768181 214 85ft 0kts
26-Aug-17 07:57 49.078507 -125.768181 214 85ft 0kts
26-Aug-17 07:58 49.078507 -125.768181 214 85ft 0kts
26-Aug-17 07:59 49.078507 -125.768181 214 85ft 0kts
26-Aug-17 08:00 49.078506 -125.768181 214 85ft 0kts
26-Aug-17 08:01 49.078507 -125.768181 214 85ft 0kts
26-Aug-17 08:02 49.078507 -125.768181 214 85ft 0kts
26-Aug-17 08:03 49.078507 -125.768181 214 85ft 0kts
26-Aug-17 08:04 49.078507 -125.768181 214 85ft 0kts
26-Aug-17 08:05 49.078442 -125.768250 215 85ft 6kts
26-Aug-17 08:06 49.078137 -125.763616 109 85ft 13kts
26-Aug-17 08:07 49.076003 -125.762642 269 79ft 0kts
26-Aug-17 08:08 49.072903 -125.794905 242 806ft 127kts
26-Aug-17 08:09 49.046907 -125.768197 107 1701ft 180kts
26-Aug-17 08:10 49.049201 -125.694439 95 3069ft 180kts
26-Aug-17 08:11 49.031216 -125.621402 112 4139ft 191kts
26-Aug-17 08:12 49.008111 -125.545478 115 4954ft 201kts
26-Aug-17 08:13 48.982086 -125.469344 117 5759ft 204kts
26-Aug-17 08:14 48.952985 -125.395336 120 6561ft 204kts
26-Aug-17 08:15 48.923761 -125.323897 121 7344ft 204kts
26-Aug-17 08:16 48.893988 -125.250875 121 8141ft 204kts
26-Aug-17 08:17 48.864301 -125.177698 121 8931ft 203kts
26-Aug-17 08:18 48.834786 -125.104411 121 9722ft 203kts
26-Aug-17 08:19 48.805561 -125.031149 121 10512ft 199kts
26-Aug-17 08:20 48.777792 -124.961056 121 11291ft 191kts
26-Aug-17 08:21 48.749420 -124.889411 120 11510ft 208kts
26-Aug-17 08:22 48.715888 -124.815376 126 11509ft 215kts
26-Aug-17 08:23 48.675131 -124.749089 135 11509ft 215kts
26-Aug-17 08:24 48.632325 -124.685685 135 11509ft 216kts
26-Aug-17 08:25 48.589450 -124.622189 135 11509ft 216kts
26-Aug-17 08:26 48.543932 -124.563361 141 11509ft 216kts
26-Aug-17 08:27 48.497129 -124.506804 141 11509ft 216kts
26-Aug-17 08:28 48.450375 -124.450321 141 11509ft 216kts
26-Aug-17 08:29 48.402849 -124.395351 154 11509ft 215kts
26-Aug-17 08:30 48.348942 -124.356819 155 11510ft 215kts
26-Aug-17 08:31 48.296919 -124.319842 156 11508ft 215kts
26-Aug-17 08:32 48.242883 -124.281609 157 11484ft 216kts
26-Aug-17 08:33 48.188396 -124.244604 157 11481ft 215kts
26-Aug-17 08:34 48.133952 -124.207615 156 11481ft 215kts
26-Aug-17 08:35 48.079580 -124.170678 156 11482ft 215kts
26-Aug-17 08:36 48.025248 -124.133776 156 11482ft 215kts
26-Aug-17 08:37 47.970887 -124.096863 156 11482ft 215kts
26-Aug-17 08:38 47.916407 -124.059885 156 11482ft 215kts
26-Aug-17 08:39 47.862239 -124.023170 156 11481ft 215kts
26-Aug-17 08:40 47.807879 -123.986388 156 11481ft 215kts
26-Aug-17 08:41 47.753476 -123.949638 156 11481ft 215kts
26-Aug-17 08:42 47.698965 -123.912880 156 11481ft 215kts
26-Aug-17 08:43 47.670727 -123.893862 156 11481ft 215kts
26-Aug-17 08:44 47.616261 -123.857193 156 11478ft 215kts
26-Aug-17 08:45 47.561662 -123.820407 156 11474ft 215kts
26-Aug-17 08:46 47.507140 -123.783596 156 11469ft 215kts
26-Aug-17 08:47 47.452582 -123.746726 156 11466ft 215kts
26-Aug-17 08:48 47.398299 -123.710030 156 11463ft 215kts
26-Aug-17 08:49 47.343749 -123.673145 156 11461ft 215kts
26-Aug-17 08:50 47.290585 -123.637209 156 11464ft 215kts
26-Aug-17 08:51 47.236037 -123.600368 156 11468ft 215kts
26-Aug-17 08:52 47.181622 -123.563652 156 11471ft 215kts
26-Aug-17 08:53 47.127166 -123.526907 156 11468ft 215kts
26-Aug-17 08:54 47.072904 -123.490284 156 11465ft 215kts
26-Aug-17 08:55 47.018476 -123.453577 156 11463ft 215kts
26-Aug-17 08:56 46.963757 -123.417135 155 11460ft 215kts
26-Aug-17 08:57 46.908813 -123.381721 155 11475ft 217kts
26-Aug-17 08:58 46.854121 -123.347364 156 11472ft 217kts
26-Aug-17 08:59 46.798784 -123.312711 156 11476ft 217kts
26-Aug-17 09:00 46.743206 -123.277949 156 11479ft 218kts
26-Aug-17 09:01 46.687499 -123.243143 156 11479ft 213kts
26-Aug-17 09:02 46.634109 -123.209854 156 11069ft 209kts
26-Aug-17 09:03 46.582127 -123.177326 155 10451ft 195kts
26-Aug-17 09:04 46.534128 -123.146339 155 9910ft 183kts
26-Aug-17 09:05 46.488116 -123.116779 155 9404ft 179kts
26-Aug-17 09:06 46.442688 -123.087462 155 8910ft 181kts
26-Aug-17 09:07 46.396199 -123.057063 155 8420ft 185kts
26-Aug-17 09:08 46.349432 -123.025947 155 7925ft 185kts
26-Aug-17 09:09 46.302966 -122.994503 155 7532ft 179kts
26-Aug-17 09:10 46.259820 -122.964914 155 7526ft 165kts
26-Aug-17 09:11 46.219135 -122.936786 155 7526ft 161kts
26-Aug-17 09:12 46.178488 -122.910509 158 7527ft 159kts
26-Aug-17 09:13 46.137836 -122.885913 157 7527ft 158kts
26-Aug-17 09:14 46.097382 -122.861434 157 7527ft 158kts
26-Aug-17 09:15 46.056869 -122.836927 157 7523ft 158kts
26-Aug-17 09:16 46.016823 -122.812766 157 7514ft 159kts
26-Aug-17 09:17 45.976041 -122.788285 157 7505ft 159kts
26-Aug-17 09:18 45.933371 -122.762925 157 6920ft 165kts
26-Aug-17 09:19 45.892446 -122.738946 157 6201ft 165kts
26-Aug-17 09:20 45.852359 -122.713510 154 5443ft 166kts
26-Aug-17 09:21 45.811440 -122.686121 154 4624ft 154kts
26-Aug-17 09:22 45.780767 -122.664871 152 4034ft 146kts
26-Aug-17 09:23 45.744629 -122.638360 152 3497ft 129kts
26-Aug-17 09:24 45.714221 -122.618170 156 2755ft 116kts
26-Aug-17 09:25 45.687763 -122.601690 154 2086ft 97kts
26-Aug-17 09:26 45.650210 -122.580767 158 1943ft 127kts
26-Aug-17 09:27 45.629328 -122.554630 106 2014ft 131kts
26-Aug-17 09:28 45.611387 -122.518417 168 2372ft 136kts
26-Aug-17 09:29 45.578271 -122.517445 205 1173ft 113kts
26-Aug-17 09:30 45.577968 -122.551732 297 299ft 97kts
26-Aug-17 09:31 45.586338 -122.573897 297 21ft 23kts
26-Aug-17 09:32 45.586550 -122.576161 213 20ft 0kts
26-Aug-17 09:33 45.586550 -122.576161 213 20ft 0kts
26-Aug-17 09:34 45.584328 -122.576522 263 20ft 9kts
26-Aug-17 09:35 45.584382 -122.576751 305 20ft 0kts

Navigation Log

Ident Type
Flight plan parsing failed, navigation log unavailable